sensor_id;sensor_type;location;lat;lon;timestamp;P1;durP1;ratioP1;P2;durP2;ratioP2
14665;SDS011;7420;53.574;10.040;2023-04-20T00:00:57;3.60;;;2.40;;
14665;SDS011;7420;53.574;10.040;2023-04-20T00:03:22;4.72;;;2.28;;
14665;SDS011;7420;53.574;10.040;2023-04-20T00:05:48;6.32;;;2.47;;
14665;SDS011;7420;53.574;10.040;2023-04-20T00:08:14;3.33;;;2.25;;
14665;SDS011;7420;53.574;10.040;2023-04-20T00:10:41;8.00;;;1.85;;
14665;SDS011;7420;53.574;10.040;2023-04-20T00:13:07;4.45;;;2.20;;
14665;SDS011;7420;53.574;10.040;2023-04-20T00:15:33;5.57;;;2.72;;
14665;SDS011;7420;53.574;10.040;2023-04-20T00:17:58;4.50;;;2.10;;
14665;SDS011;7420;53.574;10.040;2023-04-20T00:20:24;3.28;;;2.13;;
14665;SDS011;7420;53.574;10.040;2023-04-20T00:22:49;5.82;;;2.72;;
14665;SDS011;7420;53.574;10.040;2023-04-20T00:25:15;3.78;;;2.50;;
14665;SDS011;7420;53.574;10.040;2023-04-20T00:27:41;4.03;;;2.13;;
14665;SDS011;7420;53.574;10.040;2023-04-20T00:30:07;4.47;;;2.30;;
14665;SDS011;7420;53.574;10.040;2023-04-20T00:32:33;4.85;;;2.25;;
14665;SDS011;7420;53.574;10.040;2023-04-20T00:34:58;7.80;;;2.40;;
14665;SDS011;7420;53.574;10.040;2023-04-20T00:37:24;5.28;;;2.50;;
14665;SDS011;7420;53.574;10.040;2023-04-20T00:39:50;3.42;;;2.17;;
14665;SDS011;7420;53.574;10.040;2023-04-20T00:42:15;6.43;;;2.42;;
14665;SDS011;7420;53.574;10.040;2023-04-20T00:44:41;3.75;;;2.42;;
14665;SDS011;7420;53.574;10.040;2023-04-20T00:47:06;4.85;;;2.00;;
14665;SDS011;7420;53.574;10.040;2023-04-20T00:49:32;5.30;;;2.60;;
14665;SDS011;7420;53.574;10.040;2023-04-20T00:51:58;5.65;;;2.25;;
14665;SDS011;7420;53.574;10.040;2023-04-20T00:54:25;5.22;;;2.40;;
14665;SDS011;7420;53.574;10.040;2023-04-20T00:56:52;3.72;;;2.30;;
14665;SDS011;7420;53.574;10.040;2023-04-20T00:59:18;5.78;;;2.60;;
14665;SDS011;7420;53.574;10.040;2023-04-20T01:01:45;3.65;;;2.60;;
14665;SDS011;7420;53.574;10.040;2023-04-20T01:04:10;5.25;;;3.03;;
14665;SDS011;7420;53.574;10.040;2023-04-20T01:06:36;4.00;;;2.45;;
14665;SDS011;7420;53.574;10.040;2023-04-20T01:09:01;4.68;;;2.33;;
14665;SDS011;7420;53.574;10.040;2023-04-20T01:11:27;4.80;;;3.08;;
14665;SDS011;7420;53.574;10.040;2023-04-20T01:13:52;3.17;;;2.70;;
14665;SDS011;7420;53.574;10.040;2023-04-20T01:16:17;4.50;;;2.38;;
14665;SDS011;7420;53.574;10.040;2023-04-20T01:18:46;5.40;;;2.38;;
14665;SDS011;7420;53.574;10.040;2023-04-20T01:21:13;4.55;;;2.55;;
14665;SDS011;7420;53.574;10.040;2023-04-20T01:23:40;3.40;;;2.58;;
14665;SDS011;7420;53.574;10.040;2023-04-20T01:26:10;6.13;;;2.75;;
14665;SDS011;7420;53.574;10.040;2023-04-20T01:28:37;4.90;;;2.60;;
14665;SDS011;7420;53.574;10.040;2023-04-20T01:31:03;4.90;;;2.63;;
14665;SDS011;7420;53.574;10.040;2023-04-20T01:33:30;7.10;;;3.08;;
14665;SDS011;7420;53.574;10.040;2023-04-20T01:35:56;4.43;;;2.50;;
14665;SDS011;7420;53.574;10.040;2023-04-20T01:38:21;9.48;;;3.20;;
14665;SDS011;7420;53.574;10.040;2023-04-20T01:40:48;3.88;;;2.72;;
14665;SDS011;7420;53.574;10.040;2023-04-20T01:43:14;8.75;;;3.33;;
14665;SDS011;7420;53.574;10.040;2023-04-20T01:45:40;5.88;;;2.83;;
14665;SDS011;7420;53.574;10.040;2023-04-20T01:48:05;6.63;;;3.13;;
14665;SDS011;7420;53.574;10.040;2023-04-20T01:50:30;8.90;;;3.33;;
14665;SDS011;7420;53.574;10.040;2023-04-20T01:52:56;5.50;;;2.97;;
14665;SDS011;7420;53.574;10.040;2023-04-20T01:55:21;6.53;;;2.70;;
14665;SDS011;7420;53.574;10.040;2023-04-20T01:57:47;5.25;;;3.08;;
14665;SDS011;7420;53.574;10.040;2023-04-20T02:00:12;5.47;;;2.92;;
14665;SDS011;7420;53.574;10.040;2023-04-20T02:02:38;8.10;;;3.22;;
14665;SDS011;7420;53.574;10.040;2023-04-20T02:05:03;10.73;;;4.10;;
14665;SDS011;7420;53.574;10.040;2023-04-20T02:07:29;8.95;;;3.20;;
14665;SDS011;7420;53.574;10.040;2023-04-20T02:09:54;7.88;;;3.10;;
14665;SDS011;7420;53.574;10.040;2023-04-20T02:12:20;4.72;;;2.70;;
14665;SDS011;7420;53.574;10.040;2023-04-20T02:14:45;6.97;;;3.03;;
14665;SDS011;7420;53.574;10.040;2023-04-20T02:17:11;7.68;;;3.00;;
14665;SDS011;7420;53.574;10.040;2023-04-20T02:19:36;7.55;;;3.33;;
14665;SDS011;7420;53.574;10.040;2023-04-20T02:22:01;9.60;;;3.55;;
14665;SDS011;7420;53.574;10.040;2023-04-20T02:24:27;11.10;;;3.40;;
14665;SDS011;7420;53.574;10.040;2023-04-20T02:26:53;7.18;;;3.10;;
14665;SDS011;7420;53.574;10.040;2023-04-20T02:29:18;5.97;;;3.17;;
14665;SDS011;7420;53.574;10.040;2023-04-20T02:31:43;5.40;;;2.95;;
14665;SDS011;7420;53.574;10.040;2023-04-20T02:34:09;5.65;;;2.97;;
14665;SDS011;7420;53.574;10.040;2023-04-20T02:36:34;6.32;;;2.67;;
14665;SDS011;7420;53.574;10.040;2023-04-20T02:39:00;8.43;;;2.83;;
14665;SDS011;7420;53.574;10.040;2023-04-20T02:41:26;5.07;;;2.90;;
14665;SDS011;7420;53.574;10.040;2023-04-20T02:43:52;6.57;;;2.97;;
14665;SDS011;7420;53.574;10.040;2023-04-20T02:46:17;7.03;;;3.10;;
14665;SDS011;7420;53.574;10.040;2023-04-20T02:48:42;5.47;;;3.45;;
14665;SDS011;7420;53.574;10.040;2023-04-20T02:51:08;10.45;;;3.22;;
14665;SDS011;7420;53.574;10.040;2023-04-20T02:53:33;6.18;;;3.25;;
14665;SDS011;7420;53.574;10.040;2023-04-20T02:55:59;7.70;;;3.63;;
14665;SDS011;7420;53.574;10.040;2023-04-20T02:58:24;8.07;;;3.55;;
14665;SDS011;7420;53.574;10.040;2023-04-20T03:00:50;8.40;;;3.67;;
14665;SDS011;7420;53.574;10.040;2023-04-20T03:03:26;9.05;;;4.03;;
14665;SDS011;7420;53.574;10.040;2023-04-20T03:05:52;8.25;;;3.28;;
14665;SDS011;7420;53.574;10.040;2023-04-20T03:08:17;6.35;;;3.55;;
14665;SDS011;7420;53.574;10.040;2023-04-20T03:10:42;6.32;;;3.13;;
14665;SDS011;7420;53.574;10.040;2023-04-20T03:13:08;6.50;;;3.92;;
14665;SDS011;7420;53.574;10.040;2023-04-20T03:15:33;9.15;;;3.50;;
14665;SDS011;7420;53.574;10.040;2023-04-20T03:17:59;7.10;;;3.22;;
14665;SDS011;7420;53.574;10.040;2023-04-20T03:20:24;7.38;;;3.97;;
14665;SDS011;7420;53.574;10.040;2023-04-20T03:22:50;6.65;;;3.70;;
14665;SDS011;7420;53.574;10.040;2023-04-20T03:25:15;7.28;;;3.25;;
14665;SDS011;7420;53.574;10.040;2023-04-20T03:27:41;8.43;;;4.25;;
14665;SDS011;7420;53.574;10.040;2023-04-20T03:30:06;7.68;;;4.32;;
14665;SDS011;7420;53.574;10.040;2023-04-20T03:32:32;6.07;;;2.85;;
14665;SDS011;7420;53.574;10.040;2023-04-20T03:34:58;5.63;;;3.72;;
14665;SDS011;7420;53.574;10.040;2023-04-20T03:37:23;7.40;;;4.05;;
14665;SDS011;7420;53.574;10.040;2023-04-20T03:39:48;7.88;;;3.83;;
14665;SDS011;7420;53.574;10.040;2023-04-20T03:42:17;8.20;;;3.80;;
14665;SDS011;7420;53.574;10.040;2023-04-20T03:44:43;8.05;;;4.25;;
14665;SDS011;7420;53.574;10.040;2023-04-20T03:47:08;8.93;;;3.58;;
14665;SDS011;7420;53.574;10.040;2023-04-20T03:49:34;10.60;;;4.55;;
14665;SDS011;7420;53.574;10.040;2023-04-20T03:52:00;9.02;;;4.63;;
14665;SDS011;7420;53.574;10.040;2023-04-20T03:54:25;8.70;;;4.30;;
14665;SDS011;7420;53.574;10.040;2023-04-20T03:56:50;6.55;;;4.40;;
14665;SDS011;7420;53.574;10.040;2023-04-20T03:59:16;7.10;;;4.03;;
14665;SDS011;7420;53.574;10.040;2023-04-20T04:01:41;7.28;;;4.90;;
14665;SDS011;7420;53.574;10.040;2023-04-20T04:04:08;10.18;;;4.68;;
14665;SDS011;7420;53.574;10.040;2023-04-20T04:06:33;9.35;;;4.15;;
14665;SDS011;7420;53.574;10.040;2023-04-20T04:08:59;18.65;;;5.50;;
14665;SDS011;7420;53.574;10.040;2023-04-20T04:11:24;11.43;;;5.10;;
14665;SDS011;7420;53.574;10.040;2023-04-20T04:13:50;9.90;;;4.55;;
14665;SDS011;7420;53.574;10.040;2023-04-20T04:16:15;13.43;;;5.07;;
14665;SDS011;7420;53.574;10.040;2023-04-20T04:18:44;11.65;;;4.57;;
14665;SDS011;7420;53.574;10.040;2023-04-20T04:21:09;9.85;;;4.25;;
14665;SDS011;7420;53.574;10.040;2023-04-20T04:23:35;10.38;;;4.80;;
14665;SDS011;7420;53.574;10.040;2023-04-20T04:26:03;8.27;;;4.38;;
14665;SDS011;7420;53.574;10.040;2023-04-20T04:28:30;11.32;;;4.38;;
14665;SDS011;7420;53.574;10.040;2023-04-20T04:30:56;9.32;;;4.60;;
14665;SDS011;7420;53.574;10.040;2023-04-20T04:33:21;7.35;;;4.50;;
14665;SDS011;7420;53.574;10.040;2023-04-20T04:35:47;10.30;;;4.82;;
14665;SDS011;7420;53.574;10.040;2023-04-20T04:38:13;9.27;;;4.55;;
14665;SDS011;7420;53.574;10.040;2023-04-20T04:40:39;10.77;;;5.38;;
14665;SDS011;7420;53.574;10.040;2023-04-20T04:43:05;14.63;;;5.25;;
14665;SDS011;7420;53.574;10.040;2023-04-20T04:45:31;10.90;;;5.32;;
14665;SDS011;7420;53.574;10.040;2023-04-20T04:47:57;13.40;;;4.85;;
14665;SDS011;7420;53.574;10.040;2023-04-20T04:50:22;12.13;;;4.82;;
14665;SDS011;7420;53.574;10.040;2023-04-20T04:52:48;12.55;;;5.70;;
14665;SDS011;7420;53.574;10.040;2023-04-20T04:55:13;12.77;;;5.20;;
14665;SDS011;7420;53.574;10.040;2023-04-20T04:57:39;8.75;;;5.35;;
14665;SDS011;7420;53.574;10.040;2023-04-20T05:00:05;10.75;;;6.10;;
14665;SDS011;7420;53.574;10.040;2023-04-20T05:02:35;9.88;;;5.28;;
14665;SDS011;7420;53.574;10.040;2023-04-20T05:05:01;12.00;;;5.78;;
14665;SDS011;7420;53.574;10.040;2023-04-20T05:07:26;12.02;;;5.57;;
14665;SDS011;7420;53.574;10.040;2023-04-20T05:09:52;12.30;;;5.57;;
14665;SDS011;7420;53.574;10.040;2023-04-20T05:12:17;10.55;;;5.68;;
14665;SDS011;7420;53.574;10.040;2023-04-20T05:14:43;12.77;;;6.20;;
14665;SDS011;7420;53.574;10.040;2023-04-20T05:17:08;8.45;;;5.40;;
14665;SDS011;7420;53.574;10.040;2023-04-20T05:19:34;13.77;;;5.60;;
14665;SDS011;7420;53.574;10.040;2023-04-20T05:21:59;11.75;;;5.82;;
14665;SDS011;7420;53.574;10.040;2023-04-20T05:24:25;14.57;;;5.93;;
14665;SDS011;7420;53.574;10.040;2023-04-20T05:26:50;10.85;;;5.95;;
14665;SDS011;7420;53.574;10.040;2023-04-20T05:29:16;16.20;;;6.18;;
14665;SDS011;7420;53.574;10.040;2023-04-20T05:31:42;16.30;;;7.13;;
14665;SDS011;7420;53.574;10.040;2023-04-20T05:34:08;12.27;;;5.82;;
14665;SDS011;7420;53.574;10.040;2023-04-20T05:36:33;12.63;;;5.55;;
14665;SDS011;7420;53.574;10.040;2023-04-20T05:38:58;13.13;;;6.05;;
14665;SDS011;7420;53.574;10.040;2023-04-20T05:41:24;15.98;;;6.57;;
14665;SDS011;7420;53.574;10.040;2023-04-20T05:43:54;16.42;;;6.10;;
14665;SDS011;7420;53.574;10.040;2023-04-20T05:46:20;12.00;;;6.03;;
14665;SDS011;7420;53.574;10.040;2023-04-20T05:48:46;14.07;;;5.45;;
14665;SDS011;7420;53.574;10.040;2023-04-20T05:51:12;16.48;;;7.63;;
14665;SDS011;7420;53.574;10.040;2023-04-20T05:53:37;12.85;;;6.53;;
14665;SDS011;7420;53.574;10.040;2023-04-20T05:56:06;13.75;;;6.10;;
14665;SDS011;7420;53.574;10.040;2023-04-20T05:58:31;11.25;;;6.53;;
14665;SDS011;7420;53.574;10.040;2023-04-20T06:00:57;15.30;;;6.40;;
14665;SDS011;7420;53.574;10.040;2023-04-20T06:03:23;15.40;;;7.18;;
14665;SDS011;7420;53.574;10.040;2023-04-20T06:05:48;9.95;;;5.32;;
14665;SDS011;7420;53.574;10.040;2023-04-20T06:08:14;13.43;;;5.93;;
14665;SDS011;7420;53.574;10.040;2023-04-20T06:10:40;10.75;;;5.43;;
14665;SDS011;7420;53.574;10.040;2023-04-20T06:13:05;11.32;;;6.40;;
14665;SDS011;7420;53.574;10.040;2023-04-20T06:15:30;15.25;;;6.72;;
14665;SDS011;7420;53.574;10.040;2023-04-20T06:17:56;19.17;;;6.32;;
14665;SDS011;7420;53.574;10.040;2023-04-20T06:20:21;13.45;;;6.88;;
14665;SDS011;7420;53.574;10.040;2023-04-20T06:22:47;11.80;;;6.00;;
14665;SDS011;7420;53.574;10.040;2023-04-20T06:25:13;17.30;;;7.07;;
14665;SDS011;7420;53.574;10.040;2023-04-20T06:27:39;12.35;;;6.57;;
14665;SDS011;7420;53.574;10.040;2023-04-20T06:30:05;17.02;;;7.40;;
14665;SDS011;7420;53.574;10.040;2023-04-20T06:32:31;10.73;;;6.07;;
14665;SDS011;7420;53.574;10.040;2023-04-20T06:34:56;12.52;;;6.38;;
14665;SDS011;7420;53.574;10.040;2023-04-20T06:37:21;13.10;;;6.30;;
14665;SDS011;7420;53.574;10.040;2023-04-20T06:39:47;14.32;;;6.43;;
14665;SDS011;7420;53.574;10.040;2023-04-20T06:42:12;15.93;;;6.47;;
14665;SDS011;7420;53.574;10.040;2023-04-20T06:44:38;14.60;;;5.82;;
14665;SDS011;7420;53.574;10.040;2023-04-20T06:47:04;13.75;;;6.95;;
14665;SDS011;7420;53.574;10.040;2023-04-20T06:49:29;11.18;;;5.78;;
14665;SDS011;7420;53.574;10.040;2023-04-20T06:51:55;13.70;;;6.65;;
14665;SDS011;7420;53.574;10.040;2023-04-20T06:54:20;15.55;;;7.45;;
14665;SDS011;7420;53.574;10.040;2023-04-20T06:56:46;14.07;;;6.10;;
14665;SDS011;7420;53.574;10.040;2023-04-20T06:59:12;13.02;;;7.15;;
14665;SDS011;7420;53.574;10.040;2023-04-20T07:01:39;14.57;;;6.68;;
14665;SDS011;7420;53.574;10.040;2023-04-20T07:04:05;16.60;;;6.55;;
14665;SDS011;7420;53.574;10.040;2023-04-20T07:06:30;12.75;;;6.30;;
14665;SDS011;7420;53.574;10.040;2023-04-20T07:08:56;13.05;;;7.40;;
14665;SDS011;7420;53.574;10.040;2023-04-20T07:11:22;13.70;;;6.75;;
14665;SDS011;7420;53.574;10.040;2023-04-20T07:13:48;17.77;;;7.75;;
14665;SDS011;7420;53.574;10.040;2023-04-20T07:16:14;11.43;;;7.18;;
14665;SDS011;7420;53.574;10.040;2023-04-20T07:18:40;12.15;;;6.55;;
14665;SDS011;7420;53.574;10.040;2023-04-20T07:21:05;13.60;;;6.72;;
14665;SDS011;7420;53.574;10.040;2023-04-20T07:23:31;10.23;;;5.88;;
14665;SDS011;7420;53.574;10.040;2023-04-20T07:25:56;14.75;;;6.68;;
14665;SDS011;7420;53.574;10.040;2023-04-20T07:28:21;11.98;;;7.22;;
14665;SDS011;7420;53.574;10.040;2023-04-20T07:30:47;14.55;;;8.23;;
14665;SDS011;7420;53.574;10.040;2023-04-20T07:33:12;11.80;;;6.43;;
14665;SDS011;7420;53.574;10.040;2023-04-20T07:35:37;14.20;;;7.28;;
14665;SDS011;7420;53.574;10.040;2023-04-20T07:38:03;14.00;;;6.78;;
14665;SDS011;7420;53.574;10.040;2023-04-20T07:40:28;11.88;;;6.93;;
14665;SDS011;7420;53.574;10.040;2023-04-20T07:42:54;13.52;;;6.68;;
14665;SDS011;7420;53.574;10.040;2023-04-20T07:45:19;14.00;;;7.05;;
14665;SDS011;7420;53.574;10.040;2023-04-20T07:47:48;12.57;;;7.07;;
14665;SDS011;7420;53.574;10.040;2023-04-20T07:50:15;15.18;;;8.35;;
14665;SDS011;7420;53.574;10.040;2023-04-20T07:52:41;16.65;;;7.38;;
14665;SDS011;7420;53.574;10.040;2023-04-20T07:55:08;15.85;;;8.25;;
14665;SDS011;7420;53.574;10.040;2023-04-20T07:57:36;15.13;;;7.68;;
14665;SDS011;7420;53.574;10.040;2023-04-20T08:00:01;15.00;;;7.75;;
14665;SDS011;7420;53.574;10.040;2023-04-20T08:02:30;15.15;;;8.00;;
14665;SDS011;7420;53.574;10.040;2023-04-20T08:04:56;15.98;;;7.82;;
14665;SDS011;7420;53.574;10.040;2023-04-20T08:07:24;13.40;;;7.50;;
14665;SDS011;7420;53.574;10.040;2023-04-20T08:09:50;15.23;;;7.60;;
14665;SDS011;7420;53.574;10.040;2023-04-20T08:12:15;14.43;;;7.88;;
14665;SDS011;7420;53.574;10.040;2023-04-20T08:14:40;13.45;;;7.57;;
14665;SDS011;7420;53.574;10.040;2023-04-20T08:17:06;14.13;;;7.28;;
14665;SDS011;7420;53.574;10.040;2023-04-20T08:19:32;16.08;;;8.07;;
14665;SDS011;7420;53.574;10.040;2023-04-20T08:21:57;10.85;;;6.78;;
14665;SDS011;7420;53.574;10.040;2023-04-20T08:24:23;15.45;;;7.82;;
14665;SDS011;7420;53.574;10.040;2023-04-20T08:26:48;13.52;;;7.13;;
14665;SDS011;7420;53.574;10.040;2023-04-20T08:29:13;16.48;;;7.90;;
14665;SDS011;7420;53.574;10.040;2023-04-20T08:31:39;14.52;;;8.25;;
14665;SDS011;7420;53.574;10.040;2023-04-20T08:34:05;18.42;;;8.18;;
14665;SDS011;7420;53.574;10.040;2023-04-20T08:36:30;14.68;;;8.90;;
14665;SDS011;7420;53.574;10.040;2023-04-20T08:39:05;14.85;;;7.20;;
14665;SDS011;7420;53.574;10.040;2023-04-20T08:41:33;15.35;;;7.93;;
14665;SDS011;7420;53.574;10.040;2023-04-20T08:43:58;14.50;;;8.02;;
14665;SDS011;7420;53.574;10.040;2023-04-20T08:46:24;18.30;;;8.52;;
14665;SDS011;7420;53.574;10.040;2023-04-20T08:48:50;19.30;;;9.20;;
14665;SDS011;7420;53.574;10.040;2023-04-20T08:51:19;13.52;;;7.22;;
14665;SDS011;7420;53.574;10.040;2023-04-20T08:53:44;13.00;;;7.47;;
14665;SDS011;7420;53.574;10.040;2023-04-20T08:56:10;17.77;;;8.40;;
14665;SDS011;7420;53.574;10.040;2023-04-20T08:58:35;12.93;;;7.45;;
14665;SDS011;7420;53.574;10.040;2023-04-20T09:01:06;14.38;;;7.55;;
14665;SDS011;7420;53.574;10.040;2023-04-20T09:03:33;15.10;;;8.23;;
14665;SDS011;7420;53.574;10.040;2023-04-20T09:06:03;11.45;;;7.60;;
14665;SDS011;7420;53.574;10.040;2023-04-20T09:08:33;14.85;;;9.55;;
14665;SDS011;7420;53.574;10.040;2023-04-20T09:10:59;14.18;;;8.90;;
14665;SDS011;7420;53.574;10.040;2023-04-20T09:13:24;16.45;;;8.25;;
14665;SDS011;7420;53.574;10.040;2023-04-20T09:15:50;15.95;;;8.50;;
14665;SDS011;7420;53.574;10.040;2023-04-20T09:18:15;12.07;;;7.57;;
14665;SDS011;7420;53.574;10.040;2023-04-20T09:20:41;11.57;;;7.53;;
14665;SDS011;7420;53.574;10.040;2023-04-20T09:23:13;12.20;;;7.75;;
14665;SDS011;7420;53.574;10.040;2023-04-20T09:25:43;10.40;;;6.90;;
14665;SDS011;7420;53.574;10.040;2023-04-20T09:28:14;18.83;;;9.05;;
14665;SDS011;7420;53.574;10.040;2023-04-20T09:33:05;12.70;;;8.00;;
14665;SDS011;7420;53.574;10.040;2023-04-20T09:35:36;10.90;;;7.20;;
14665;SDS011;7420;53.574;10.040;2023-04-20T09:38:06;17.60;;;9.68;;
14665;SDS011;7420;53.574;10.040;2023-04-20T09:40:32;15.02;;;9.90;;
14665;SDS011;7420;53.574;10.040;2023-04-20T09:42:58;14.32;;;8.40;;
14665;SDS011;7420;53.574;10.040;2023-04-20T09:45:31;13.27;;;8.73;;
14665;SDS011;7420;53.574;10.040;2023-04-20T09:47:57;12.82;;;8.70;;
14665;SDS011;7420;53.574;10.040;2023-04-20T09:50:23;14.02;;;8.25;;
14665;SDS011;7420;53.574;10.040;2023-04-20T09:52:49;12.65;;;8.15;;
14665;SDS011;7420;53.574;10.040;2023-04-20T09:55:15;16.33;;;9.50;;
14665;SDS011;7420;53.574;10.040;2023-04-20T09:57:41;13.75;;;7.65;;
14665;SDS011;7420;53.574;10.040;2023-04-20T10:00:08;12.52;;;7.90;;
14665;SDS011;7420;53.574;10.040;2023-04-20T10:02:35;17.63;;;9.15;;
14665;SDS011;7420;53.574;10.040;2023-04-20T10:05:01;12.27;;;7.80;;
14665;SDS011;7420;53.574;10.040;2023-04-20T10:07:28;13.98;;;8.15;;
14665;SDS011;7420;53.574;10.040;2023-04-20T10:10:04;13.73;;;7.60;;
14665;SDS011;7420;53.574;10.040;2023-04-20T10:12:55;10.13;;;6.90;;
14665;SDS011;7420;53.574;10.040;2023-04-20T10:15:20;13.13;;;8.18;;
14665;SDS011;7420;53.574;10.040;2023-04-20T10:17:48;17.75;;;7.75;;
14665;SDS011;7420;53.574;10.040;2023-04-20T10:20:19;13.60;;;7.95;;
14665;SDS011;7420;53.574;10.040;2023-04-20T10:22:46;18.48;;;8.02;;
14665;SDS011;7420;53.574;10.040;2023-04-20T10:25:19;17.63;;;7.50;;
14665;SDS011;7420;53.574;10.040;2023-04-20T10:27:54;14.02;;;7.82;;
14665;SDS011;7420;53.574;10.040;2023-04-20T10:30:22;16.52;;;7.85;;
14665;SDS011;7420;53.574;10.040;2023-04-20T10:32:48;21.88;;;8.20;;
14665;SDS011;7420;53.574;10.040;2023-04-20T10:35:16;12.00;;;7.78;;
14665;SDS011;7420;53.574;10.040;2023-04-20T10:37:48;14.25;;;7.25;;
14665;SDS011;7420;53.574;10.040;2023-04-20T10:40:15;12.63;;;7.90;;
14665;SDS011;7420;53.574;10.040;2023-04-20T10:42:43;12.55;;;8.02;;
14665;SDS011;7420;53.574;10.040;2023-04-20T10:45:09;12.30;;;7.38;;
14665;SDS011;7420;53.574;10.040;2023-04-20T10:47:35;15.60;;;9.15;;
14665;SDS011;7420;53.574;10.040;2023-04-20T10:50:07;10.60;;;7.53;;
14665;SDS011;7420;53.574;10.040;2023-04-20T10:52:38;17.38;;;8.02;;
14665;SDS011;7420;53.574;10.040;2023-04-20T10:55:04;14.98;;;8.20;;
14665;SDS011;7420;53.574;10.040;2023-04-20T10:57:34;13.75;;;8.52;;
14665;SDS011;7420;53.574;10.040;2023-04-20T11:00:11;15.32;;;6.72;;
14665;SDS011;7420;53.574;10.040;2023-04-20T11:03:00;13.88;;;7.07;;
14665;SDS011;7420;53.574;10.040;2023-04-20T11:05:26;16.30;;;7.85;;
14665;SDS011;7420;53.574;10.040;2023-04-20T11:07:52;12.15;;;8.43;;
14665;SDS011;7420;53.574;10.040;2023-04-20T11:10:35;12.32;;;8.32;;
14665;SDS011;7420;53.574;10.040;2023-04-20T11:13:02;17.45;;;9.40;;
14665;SDS011;7420;53.574;10.040;2023-04-20T11:15:31;14.20;;;8.57;;
14665;SDS011;7420;53.574;10.040;2023-04-20T11:18:06;14.10;;;8.00;;
14665;SDS011;7420;53.574;10.040;2023-04-20T11:20:32;14.18;;;8.07;;
14665;SDS011;7420;53.574;10.040;2023-04-20T11:22:58;14.77;;;8.13;;
14665;SDS011;7420;53.574;10.040;2023-04-20T11:25:24;12.90;;;7.25;;
14665;SDS011;7420;53.574;10.040;2023-04-20T11:27:49;16.50;;;9.20;;
14665;SDS011;7420;53.574;10.040;2023-04-20T11:30:15;19.83;;;8.45;;
14665;SDS011;7420;53.574;10.040;2023-04-20T11:32:40;13.13;;;8.98;;
14665;SDS011;7420;53.574;10.040;2023-04-20T11:35:07;12.07;;;8.43;;
14665;SDS011;7420;53.574;10.040;2023-04-20T11:37:47;15.18;;;8.15;;
14665;SDS011;7420;53.574;10.040;2023-04-20T11:40:15;12.57;;;8.05;;
14665;SDS011;7420;53.574;10.040;2023-04-20T11:42:41;14.05;;;8.80;;
14665;SDS011;7420;53.574;10.040;2023-04-20T11:45:06;13.38;;;8.45;;
14665;SDS011;7420;53.574;10.040;2023-04-20T11:47:32;14.25;;;9.00;;
14665;SDS011;7420;53.574;10.040;2023-04-20T11:49:57;15.18;;;9.10;;
14665;SDS011;7420;53.574;10.040;2023-04-20T11:52:23;14.65;;;8.65;;
14665;SDS011;7420;53.574;10.040;2023-04-20T11:54:48;15.02;;;9.07;;
14665;SDS011;7420;53.574;10.040;2023-04-20T11:57:14;12.35;;;8.10;;
14665;SDS011;7420;53.574;10.040;2023-04-20T11:59:40;13.88;;;9.32;;
14665;SDS011;7420;53.574;10.040;2023-04-20T12:02:07;16.10;;;8.50;;
14665;SDS011;7420;53.574;10.040;2023-04-20T12:04:32;20.75;;;11.00;;
14665;SDS011;7420;53.574;10.040;2023-04-20T12:06:58;12.05;;;8.73;;
14665;SDS011;7420;53.574;10.040;2023-04-20T12:09:25;13.23;;;9.45;;
14665;SDS011;7420;53.574;10.040;2023-04-20T12:11:51;14.02;;;9.90;;
14665;SDS011;7420;53.574;10.040;2023-04-20T12:14:16;14.65;;;10.43;;
14665;SDS011;7420;53.574;10.040;2023-04-20T12:16:41;13.65;;;9.55;;
14665;SDS011;7420;53.574;10.040;2023-04-20T12:19:07;14.13;;;9.02;;
14665;SDS011;7420;53.574;10.040;2023-04-20T12:21:33;18.80;;;10.40;;
14665;SDS011;7420;53.574;10.040;2023-04-20T12:23:59;17.60;;;9.18;;
14665;SDS011;7420;53.574;10.040;2023-04-20T12:26:24;19.58;;;11.48;;
14665;SDS011;7420;53.574;10.040;2023-04-20T12:28:50;15.48;;;10.75;;
14665;SDS011;7420;53.574;10.040;2023-04-20T12:31:16;16.55;;;9.38;;
14665;SDS011;7420;53.574;10.040;2023-04-20T12:33:41;15.30;;;9.98;;
14665;SDS011;7420;53.574;10.040;2023-04-20T12:36:08;20.30;;;10.82;;
14665;SDS011;7420;53.574;10.040;2023-04-20T12:38:33;16.02;;;10.02;;
14665;SDS011;7420;53.574;10.040;2023-04-20T12:40:59;19.50;;;10.63;;
14665;SDS011;7420;53.574;10.040;2023-04-20T12:43:24;17.77;;;10.18;;
14665;SDS011;7420;53.574;10.040;2023-04-20T12:45:50;16.30;;;10.50;;
14665;SDS011;7420;53.574;10.040;2023-04-20T12:48:15;14.32;;;10.38;;
14665;SDS011;7420;53.574;10.040;2023-04-20T12:50:40;15.63;;;11.25;;
14665;SDS011;7420;53.574;10.040;2023-04-20T12:53:06;15.88;;;9.90;;
14665;SDS011;7420;53.574;10.040;2023-04-20T12:55:31;15.93;;;9.63;;
14665;SDS011;7420;53.574;10.040;2023-04-20T12:57:57;18.67;;;10.70;;
14665;SDS011;7420;53.574;10.040;2023-04-20T13:00:22;19.90;;;9.65;;
14665;SDS011;7420;53.574;10.040;2023-04-20T13:02:48;15.40;;;9.35;;
14665;SDS011;7420;53.574;10.040;2023-04-20T13:05:13;17.65;;;10.30;;
14665;SDS011;7420;53.574;10.040;2023-04-20T13:07:39;15.63;;;9.32;;
14665;SDS011;7420;53.574;10.040;2023-04-20T13:10:05;14.77;;;9.90;;
14665;SDS011;7420;53.574;10.040;2023-04-20T13:12:33;17.38;;;11.13;;
14665;SDS011;7420;53.574;10.040;2023-04-20T13:14:59;18.48;;;10.65;;
14665;SDS011;7420;53.574;10.040;2023-04-20T13:17:27;14.45;;;10.20;;
14665;SDS011;7420;53.574;10.040;2023-04-20T13:19:52;16.58;;;10.85;;
14665;SDS011;7420;53.574;10.040;2023-04-20T13:22:17;20.10;;;11.18;;
14665;SDS011;7420;53.574;10.040;2023-04-20T13:24:43;20.63;;;10.52;;
14665;SDS011;7420;53.574;10.040;2023-04-20T13:27:10;17.70;;;11.13;;
14665;SDS011;7420;53.574;10.040;2023-04-20T13:29:35;15.18;;;11.50;;
14665;SDS011;7420;53.574;10.040;2023-04-20T13:32:01;15.80;;;9.73;;
14665;SDS011;7420;53.574;10.040;2023-04-20T13:34:26;19.98;;;10.48;;
14665;SDS011;7420;53.574;10.040;2023-04-20T13:36:52;16.80;;;10.85;;
14665;SDS011;7420;53.574;10.040;2023-04-20T13:39:18;20.20;;;11.55;;
14665;SDS011;7420;53.574;10.040;2023-04-20T13:41:45;15.13;;;10.70;;
14665;SDS011;7420;53.574;10.040;2023-04-20T13:44:11;15.77;;;9.90;;
14665;SDS011;7420;53.574;10.040;2023-04-20T13:46:40;23.58;;;11.02;;
14665;SDS011;7420;53.574;10.040;2023-04-20T13:49:07;18.13;;;11.25;;
14665;SDS011;7420;53.574;10.040;2023-04-20T13:51:32;14.75;;;10.63;;
14665;SDS011;7420;53.574;10.040;2023-04-20T13:53:58;16.05;;;10.55;;
14665;SDS011;7420;53.574;10.040;2023-04-20T13:56:23;17.05;;;11.13;;
14665;SDS011;7420;53.574;10.040;2023-04-20T13:58:48;23.88;;;11.40;;
14665;SDS011;7420;53.574;10.040;2023-04-20T14:01:14;20.95;;;11.43;;
14665;SDS011;7420;53.574;10.040;2023-04-20T14:03:40;19.90;;;11.60;;
14665;SDS011;7420;53.574;10.040;2023-04-20T14:06:06;18.50;;;10.57;;
14665;SDS011;7420;53.574;10.040;2023-04-20T14:08:31;20.38;;;10.63;;
14665;SDS011;7420;53.574;10.040;2023-04-20T14:10:57;19.67;;;10.93;;
14665;SDS011;7420;53.574;10.040;2023-04-20T14:13:22;21.02;;;11.27;;
14665;SDS011;7420;53.574;10.040;2023-04-20T14:15:48;17.02;;;10.95;;
14665;SDS011;7420;53.574;10.040;2023-04-20T14:18:14;18.30;;;11.95;;
14665;SDS011;7420;53.574;10.040;2023-04-20T14:20:40;18.02;;;11.40;;
14665;SDS011;7420;53.574;10.040;2023-04-20T14:23:05;18.40;;;11.35;;
14665;SDS011;7420;53.574;10.040;2023-04-20T14:25:31;17.17;;;11.20;;
14665;SDS011;7420;53.574;10.040;2023-04-20T14:27:56;17.23;;;11.10;;
14665;SDS011;7420;53.574;10.040;2023-04-20T14:30:21;21.45;;;10.57;;
14665;SDS011;7420;53.574;10.040;2023-04-20T14:32:53;19.23;;;11.82;;